Time;durP1;ratioP1;P1;durP2;ratioP2;P2;SDS_P1;SDS_P2;PMS_P1;PMS_P2;Temp;Humidity;BMP_temperature;BMP_pressure;BME280_temperature;BME280_humidity;BME280_pressure;Samples;Min_cycle;Max_cycle;Signal;HPM_P1;HPM_P2
2022/06/11 00:00:13;;;;;;;7.50;6.90;;;18.20;1.00;;;;;;5044985;28;20451;-60
2022/06/11 00:02:39;;;;;;;8.70;7.70;;;18.20;1.00;;;;;;5047163;28;20438;-62
2022/06/11 00:05:05;;;;;;;6.93;6.43;;;18.20;1.00;;;;;;5042960;28;20446;-61
2022/06/11 00:07:32;;;;;;;7.27;6.67;;;18.10;1.00;;;;;;5047860;28;20564;-62
2022/06/11 00:09:58;;;;;;;8.20;6.60;;;18.10;1.00;;;;;;5047777;28;20516;-61
2022/06/11 00:12:24;;;;;;;7.20;6.60;;;18.20;1.00;;;;;;5049515;28;20442;-61
2022/06/11 00:14:50;;;;;;;7.57;6.97;;;18.20;1.00;;;;;;5047875;28;20230;-61
2022/06/11 00:17:18;;;;;;;8.50;7.83;;;18.20;1.00;;;;;;5049757;28;20435;-62
2022/06/11 00:19:45;;;;;;;7.43;6.90;;;18.00;1.00;;;;;;5045159;28;20195;-61
2022/06/11 00:22:12;;;;;;;8.10;7.20;;;18.00;1.00;;;;;;5047877;28;20442;-62
2022/06/11 00:24:38;;;;;;;7.97;7.37;;;18.00;1.00;;;;;;5046454;28;20581;-61
2022/06/11 00:27:06;;;;;;;8.30;7.60;;;18.00;1.00;;;;;;5044506;28;20525;-61
2022/06/11 00:29:34;;;;;;;7.50;7.00;;;18.00;1.00;;;;;;5047147;28;20184;-61
2022/06/11 00:32:00;;;;;;;8.60;8.00;;;17.90;1.00;;;;;;5046880;28;20882;-62
2022/06/11 00:34:26;;;;;;;7.77;7.20;;;17.90;1.00;;;;;;5043349;28;20545;-61
2022/06/11 00:36:53;;;;;;;7.50;6.90;;;17.70;1.00;;;;;;5039912;28;20190;-61
2022/06/11 00:39:21;;;;;;;7.37;6.87;;;17.70;1.00;;;;;;5044817;28;20493;-62
2022/06/11 00:41:51;;;;;;;7.77;7.10;;;17.80;1.00;;;;;;5043776;28;22738;-61
2022/06/11 00:44:17;;;;;;;8.10;7.50;;;17.70;1.00;;;;;;5048340;28;20531;-61
2022/06/11 00:47:01;;;;;;;8.13;7.40;;;17.60;1.00;;;;;;5042320;28;20520;-61
2022/06/11 00:49:53;;;;;;;7.57;6.97;;;17.60;1.00;;;;;;5042957;28;20501;-60
2022/06/11 00:52:28;;;;;;;8.30;7.70;;;17.60;1.00;;;;;;5043016;28;20438;-61
2022/06/11 00:55:12;;;;;;;8.53;7.73;;;17.60;1.00;;;;;;5043844;28;20442;-61
2022/06/11 00:57:49;;;;;;;7.60;7.10;;;17.50;1.00;;;;;;5045750;28;20472;-62
2022/06/11 01:00:26;;;;;;;8.00;7.40;;;17.50;1.00;;;;;;5046938;28;20449;-62
2022/06/11 01:02:52;;;;;;;8.00;7.30;;;17.50;1.00;;;;;;5034402;28;20597;-61
2022/06/11 01:05:26;;;;;;;7.83;7.23;;;17.50;1.00;;;;;;5042407;28;20511;-61
2022/06/11 01:08:17;;;;;;;9.73;7.60;;;18.30;1.00;;;;;;5050410;28;20462;-61
2022/06/11 01:10:46;;;;;;;8.77;8.07;;;17.40;1.00;;;;;;5047917;28;20451;-61
2022/06/11 01:13:41;;;;;;;8.87;8.03;;;17.40;1.00;;;;;;5037417;28;20455;-61
2022/06/11 01:16:27;;;;;;;8.30;7.60;;;17.40;1.00;;;;;;5047074;28;20446;-61
2022/06/11 01:19:16;;;;;;;8.73;7.93;;;17.30;1.00;;;;;;5049266;28;20545;-61
2022/06/11 01:21:54;;;;;;;8.07;7.27;;;17.20;1.00;;;;;;5038956;28;20944;-61
2022/06/11 01:24:40;;;;;;;8.60;6.97;;;17.30;1.00;;;;;;5043594;28;20506;-61
2022/06/11 01:27:37;;;;;;;8.30;7.60;;;17.20;1.00;;;;;;5050138;28;20444;-62
2022/06/11 01:30:19;;;;;;;8.77;8.00;;;19.60;1.00;;;;;;5050513;28;20453;-61
2022/06/11 01:32:57;;;;;;;8.50;7.90;;;17.10;1.00;;;;;;5045859;28;20450;-61
2022/06/11 01:35:36;;;;;;;8.57;7.97;;;17.10;1.00;;;;;;5051207;28;20811;-61
2022/06/11 01:38:06;;;;;;;8.30;7.57;;;17.00;1.00;;;;;;5048484;28;20563;-62
2022/06/11 01:40:59;;;;;;;9.27;8.57;;;17.20;1.00;;;;;;5042183;28;20782;-61
2022/06/11 01:43:32;;;;;;;9.03;7.47;;;17.10;1.00;;;;;;5043006;28;20470;-61
2022/06/11 01:46:01;;;;;;;8.77;8.07;;;17.00;1.00;;;;;;5049534;28;20500;-62
2022/06/11 01:48:28;;;;;;;8.93;8.23;;;17.00;1.00;;;;;;5049289;28;20813;-61
2022/06/11 01:51:10;;;;;;;9.23;8.53;;;16.80;1.00;;;;;;5049764;28;20485;-60
2022/06/11 01:53:50;;;;;;;8.93;8.13;;;16.80;1.00;;;;;;5047504;28;20515;-62
2022/06/11 01:56:34;;;;;;;8.60;7.90;;;16.80;1.00;;;;;;5049790;28;20508;-61
2022/06/11 01:59:02;;;;;;;8.07;7.47;;;16.80;1.00;;;;;;5049995;28;20443;-61
2022/06/11 02:01:45;;;;;;;9.57;8.87;;;16.80;1.00;;;;;;5047853;28;20460;-61
2022/06/11 02:04:42;;;;;;;9.10;8.40;;;16.70;1.00;;;;;;5044325;28;20566;-61
2022/06/11 02:07:15;;;;;;;8.50;7.87;;;16.70;1.00;;;;;;5050774;28;20450;-60
2022/06/11 02:09:48;;;;;;;8.30;7.60;;;16.60;1.00;;;;;;5044811;28;20532;-60
2022/06/11 02:12:21;;;;;;;8.30;7.50;;;16.60;1.00;;;;;;5051014;28;20496;-61
2022/06/11 02:14:55;;;;;;;8.80;8.20;;;16.70;1.00;;;;;;5046943;28;20973;-61
2022/06/11 02:17:26;;;;;;;10.00;9.20;;;16.60;1.00;;;;;;5051559;28;20891;-61
2022/06/11 02:20:09;;;;;;;8.40;7.70;;;16.60;1.00;;;;;;5049034;28;20418;-61
2022/06/11 02:22:53;;;;;;;9.30;8.50;;;16.60;1.00;;;;;;5062866;28;20421;-61
2022/06/11 02:25:27;;;;;;;9.00;8.30;;;16.50;1.00;;;;;;5048359;28;20438;-60
2022/06/11 02:27:57;;;;;;;9.47;8.07;;;16.60;1.00;;;;;;5061244;28;20824;-61
2022/06/11 02:30:27;;;;;;;9.50;8.80;;;16.50;1.00;;;;;;5047794;28;20457;-61
2022/06/11 02:32:53;;;;;;;8.90;8.10;;;16.40;1.00;;;;;;5049275;28;20420;-60
2022/06/11 02:35:44;;;;;;;9.97;9.07;;;16.40;1.00;;;;;;5039826;28;20537;-61
2022/06/11 02:38:13;;;;;;;11.10;9.27;;;16.50;1.00;;;;;;5047046;28;20450;-61
2022/06/11 02:40:45;;;;;;;8.80;8.10;;;16.40;1.00;;;;;;5049998;28;20797;-61
2022/06/11 02:43:11;;;;;;;9.17;8.47;;;16.40;1.00;;;;;;5048472;28;20469;-61
2022/06/11 02:45:36;;;;;;;8.27;7.67;;;16.40;1.00;;;;;;5046922;28;20453;-61
2022/06/11 02:48:03;;;;;;;8.60;7.90;;;16.40;1.00;;;;;;5050996;28;20188;-61
2022/06/11 02:50:31;;;;;;;9.20;8.40;;;16.30;1.00;;;;;;5051609;28;20226;-60
2022/06/11 02:52:58;;;;;;;10.83;9.03;;;16.30;1.00;;;;;;5057969;28;20455;-60
2022/06/11 02:55:25;;;;;;;9.13;8.43;;;16.40;1.00;;;;;;5045745;28;20549;-60
2022/06/11 02:57:51;;;;;;;8.63;8.03;;;16.30;1.00;;;;;;5045564;28;20805;-61
2022/06/11 03:00:24;;;;;;;8.47;7.60;;;16.20;1.00;;;;;;5062936;28;20469;-60
2022/06/11 03:02:50;;;;;;;8.87;8.07;;;16.20;1.00;;;;;;5040088;28;20516;-61
2022/06/11 03:05:18;;;;;;;11.87;8.97;;;16.20;1.00;;;;;;5047386;28;20929;-60
2022/06/11 03:07:45;;;;;;;8.67;8.03;;;16.20;1.00;;;;;;5047525;28;20195;-59
2022/06/11 03:10:13;;;;;;;9.40;8.50;;;16.20;1.00;;;;;;5044533;28;20446;-60
2022/06/11 03:12:39;;;;;;;8.60;8.00;;;16.20;1.00;;;;;;5048592;28;20450;-61
2022/06/11 03:15:05;;;;;;;10.00;9.10;;;16.20;1.00;;;;;;5057826;28;20446;-60
2022/06/11 03:17:31;;;;;;;9.70;8.80;;;16.10;1.00;;;;;;5048721;28;20187;-60
2022/06/11 03:19:57;;;;;;;8.67;8.03;;;16.20;1.00;;;;;;5047139;28;20615;-61
2022/06/11 03:22:22;;;;;;;8.30;7.70;;;16.20;1.00;;;;;;5048407;28;20506;-60
2022/06/11 03:24:48;;;;;;;8.77;8.00;;;16.20;1.00;;;;;;5041116;28;20474;-60
2022/06/11 03:27:15;;;;;;;8.80;8.00;;;16.30;1.00;;;;;;5048099;28;20230;-61
2022/06/11 03:29:41;;;;;;;8.20;7.50;;;16.40;1.00;;;;;;5048247;28;20189;-60
2022/06/11 03:32:07;;;;;;;8.50;7.70;;;16.70;1.00;;;;;;5049722;28;20442;-60
2022/06/11 03:34:33;;;;;;;8.00;7.40;;;16.80;1.00;;;;;;5047686;28;20454;-61
2022/06/11 03:36:59;;;;;;;11.67;7.83;;;16.90;1.00;;;;;;5049927;28;21048;-60
2022/06/11 03:39:25;;;;;;;8.20;7.10;;;17.20;1.00;;;;;;5041407;28;20197;-60
2022/06/11 03:41:51;;;;;;;7.50;7.00;;;17.50;1.00;;;;;;5046565;28;20927;-60
2022/06/11 03:44:17;;;;;;;7.73;7.03;;;17.50;1.00;;;;;;5047788;28;20215;-61
2022/06/11 03:46:43;;;;;;;7.23;6.73;;;17.60;1.00;;;;;;5045616;28;20441;-61
2022/06/11 03:49:09;;;;;;;7.30;6.80;;;17.80;1.00;;;;;;5041070;28;21105;-60
2022/06/11 03:51:34;;;;;;;7.07;6.47;;;18.00;1.00;;;;;;5042774;28;20547;-61
2022/06/11 03:54:00;;;;;;;7.43;6.83;;;17.90;1.00;;;;;;5038385;28;20761;-61
2022/06/11 03:56:26;;;;;;;10.20;7.40;;;17.80;1.00;;;;;;5044412;28;20442;-61
2022/06/11 03:58:53;;;;;;;7.47;6.77;;;17.50;1.00;;;;;;5047976;28;20430;-59
2022/06/11 04:01:28;;;;;;;8.90;8.30;;;17.30;1.00;;;;;;5043121;28;20451;-60
2022/06/11 04:04:02;;;;;;;8.67;7.90;;;17.20;1.00;;;;;;5042305;28;20466;-60
2022/06/11 04:06:38;;;;;;;8.13;7.63;;;17.10;1.00;;;;;;5048346;28;20445;-61
2022/06/11 04:09:12;;;;;;;9.20;8.33;;;17.00;1.00;;;;;;5047567;28;20762;-60
2022/06/11 04:11:38;;;;;;;8.70;8.00;;;17.00;1.00;;;;;;5048376;28;20777;-61
2022/06/11 04:14:04;;;;;;;8.77;7.97;;;16.90;1.00;;;;;;5046279;28;20457;-61
2022/06/11 04:16:39;;;;;;;8.67;7.97;;;16.90;1.00;;;;;;5047668;28;20196;-60
2022/06/11 04:19:07;;;;;;;9.23;8.27;;;16.90;1.00;;;;;;5047060;28;20507;-60
2022/06/11 04:21:35;;;;;;;8.70;8.00;;;16.80;1.00;;;;;;5047970;28;20770;-61
2022/06/11 04:24:03;;;;;;;8.63;7.43;;;16.80;1.00;;;;;;5044245;28;20502;-60
2022/06/11 04:26:33;;;;;;;7.33;6.83;;;16.80;1.00;;;;;;5052400;28;20915;-60
2022/06/11 04:29:00;;;;;;;7.80;7.20;;;16.90;1.00;;;;;;5057294;28;20442;-61
2022/06/11 04:31:28;;;;;;;7.47;6.97;;;17.00;1.00;;;;;;5049638;28;20424;-60
2022/06/11 04:33:55;;;;;;;8.13;7.53;;;;;;;;;;5042992;28;20476;-60
2022/06/11 04:36:32;;;;;;;8.73;7.83;;;17.10;1.00;;;;;;5049610;28;20967;-60
2022/06/11 04:38:58;;;;;;;7.67;7.17;;;17.20;1.00;;;;;;5046734;28;20442;-61
2022/06/11 04:41:25;;;;;;;8.20;7.47;;;17.30;1.00;;;;;;5048287;28;20571;-61
2022/06/11 04:43:51;;;;;;;8.30;7.70;;;17.40;1.00;;;;;;5048245;28;20219;-60
2022/06/11 04:46:23;;;;;;;8.30;7.70;;;17.30;1.00;;;;;;5049197;28;20434;-61
2022/06/11 04:48:49;;;;;;;7.93;7.20;;;17.40;1.00;;;;;;5044103;28;21005;-60
2022/06/11 04:51:27;;;;;;;8.00;7.50;;;17.60;1.00;;;;;;5051510;28;20536;-61
2022/06/11 04:53:52;;;;;;;8.10;7.50;;;17.60;1.00;;;;;;5043760;28;20767;-61
2022/06/11 04:56:25;;;;;;;8.03;7.43;;;17.70;1.00;;;;;;5044918;28;20580;-60
2022/06/11 04:58:52;;;;;;;8.40;7.80;;;17.80;1.00;;;;;;5046625;28;20762;-60
2022/06/11 05:01:27;;;;;;;8.70;8.10;;;17.70;1.00;;;;;;5047440;28;20939;-61
2022/06/11 05:03:53;;;;;;;7.63;7.03;;;17.80;1.00;;;;;;5045162;28;20469;-61
2022/06/11 05:06:30;;;;;;;7.90;7.17;;;17.70;1.00;;;;;;5041069;28;20446;-60
2022/06/11 05:08:56;;;;;;;8.00;7.30;;;;;;;;;;5050270;28;20445;-60
2022/06/11 05:11:21;;;;;;;8.00;7.50;;;18.10;1.00;;;;;;5053073;28;20890;-61
2022/06/11 05:13:47;;;;;;;8.43;7.73;;;18.30;1.00;;;;;;5050908;28;20448;-60
2022/06/11 05:16:22;;;;;;;8.27;7.23;;;18.30;1.00;;;;;;5047979;28;20200;-61
2022/06/11 05:18:48;;;;;;;7.77;7.13;;;18.30;1.00;;;;;;5049421;28;21057;-61
2022/06/11 05:21:29;;;;;;;8.33;7.53;;;18.50;1.00;;;;;;5052841;28;20443;-60
2022/06/11 05:23:54;;;;;;;8.00;7.50;;;18.50;1.00;;;;;;5053024;28;20465;-60
2022/06/11 05:26:24;;;;;;;7.67;7.07;;;18.60;1.00;;;;;;5050477;28;20480;-60
2022/06/11 05:28:50;;;;;;;6.40;5.93;;;18.70;1.00;;;;;;5052017;28;20668;-60
2022/06/11 05:31:23;;;;;;;7.30;6.63;;;18.70;1.00;;;;;;5049677;28;20446;-60
2022/06/11 05:33:48;;;;;;;7.27;6.77;;;18.90;1.00;;;;;;5047568;28;20800;-60
2022/06/11 05:36:23;;;;;;;7.43;6.83;;;19.00;1.00;;;;;;5049214;28;20450;-60
2022/06/11 05:38:49;;;;;;;7.30;6.80;;;19.10;1.00;;;;;;5050986;28;20206;-59
2022/06/11 05:41:30;;;;;;;7.03;6.53;;;19.20;1.00;;;;;;5049172;28;20454;-60
2022/06/11 05:43:55;;;;;;;6.57;6.10;;;19.50;1.00;;;;;;5050508;28;20854;-58
2022/06/11 05:46:24;;;;;;;6.53;6.13;;;19.60;1.00;;;;;;5062404;28;20545;-60
2022/06/11 05:48:58;;;;;;;6.73;6.13;;;19.70;1.00;;;;;;5051378;28;20257;-61
2022/06/11 05:51:31;;;;;;;7.63;6.77;;;19.70;1.00;;;;;;5052160;28;20472;-61
2022/06/11 05:54:01;;;;;;;6.40;5.90;;;19.90;1.00;;;;;;5050629;28;20455;-61
2022/06/11 05:56:28;;;;;;;6.60;6.20;;;20.00;1.00;;;;;;5049012;28;20469;-65
2022/06/11 05:58:57;;;;;;;6.43;5.83;;;20.10;1.00;;;;;;5056333;28;20468;-66
2022/06/11 06:01:27;;;;;;;6.00;5.53;;;20.20;1.00;;;;;;5049556;28;20423;-65
2022/06/11 06:03:53;;;;;;;5.80;5.40;;;20.20;1.00;;;;;;5048546;28;20616;-65
2022/06/11 06:06:21;;;;;;;5.60;5.20;;;20.40;1.00;;;;;;5051303;28;20888;-65
2022/06/11 06:08:47;;;;;;;7.23;5.87;;;20.50;1.00;;;;;;5050406;28;20188;-64
2022/06/11 06:11:26;;;;;;;5.07;4.77;;;20.60;1.00;;;;;;5052475;28;20911;-64
2022/06/11 06:13:53;;;;;;;5.73;5.20;;;20.70;1.00;;;;;;5050653;28;20198;-59
2022/06/11 06:16:22;;;;;;;5.47;5.07;;;20.80;1.00;;;;;;5044910;28;20424;-59
2022/06/11 06:18:49;;;;;;;5.57;5.07;;;20.80;1.00;;;;;;5049571;28;20792;-59
2022/06/11 06:21:21;;;;;;;4.50;4.17;;;20.80;1.00;;;;;;5050839;28;20901;-61
2022/06/11 06:23:47;;;;;;;5.80;5.20;;;20.90;1.00;;;;;;5051662;28;20505;-60
2022/06/11 06:26:20;;;;;;;5.40;5.00;;;21.20;1.00;;;;;;5051340;28;20474;-61
2022/06/11 06:28:47;;;;;;;5.70;5.20;;;21.30;1.00;;;;;;5049850;28;20457;-60
2022/06/11 06:31:19;;;;;;;5.10;4.70;;;21.30;1.00;;;;;;5051136;28;20443;-61
2022/06/11 06:33:46;;;;;;;5.30;5.00;;;21.50;1.00;;;;;;5051189;28;20476;-60
2022/06/11 06:36:32;;;;;;;4.50;4.20;;;21.70;1.00;;;;;;5050844;28;20484;-59
2022/06/11 06:38:58;;;;;;;4.83;4.47;;;21.80;1.00;;;;;;5051237;28;20442;-62
2022/06/11 06:41:30;;;;;;;5.23;4.33;;;22.00;1.00;;;;;;5051254;28;20499;-61
2022/06/11 06:43:55;;;;;;;5.17;4.77;;;22.20;1.00;;;;;;5056036;28;20480;-61
2022/06/11 06:46:22;;;;;;;4.63;4.30;;;22.30;1.00;;;;;;5054842;28;20920;-60
2022/06/11 06:48:47;;;;;;;4.90;4.50;;;22.30;1.00;;;;;;5052808;28;20180;-61
2022/06/11 06:51:28;;;;;;;5.83;4.60;;;22.30;1.00;;;;;;5046941;28;21002;-60
2022/06/11 06:53:54;;;;;;;4.40;3.97;;;22.40;1.00;;;;;;5051286;28;20282;-61
2022/06/11 06:56:20;;;;;;;4.70;4.30;;;22.40;1.00;;;;;;5050187;28;20538;-61
2022/06/11 06:58:46;;;;;;;4.10;3.80;;;22.60;1.00;;;;;;5051199;28;20185;-60
2022/06/11 07:01:26;;;;;;;4.10;3.80;;;22.60;1.00;;;;;;5050583;28;20448;-61
2022/06/11 07:03:52;;;;;;;4.63;4.13;;;22.60;1.00;;;;;;5048668;28;20227;-61
2022/06/11 07:06:18;;;;;;;4.17;3.83;;;22.80;1.00;;;;;;5061173;28;20810;-61
2022/06/11 07:08:44;;;;;;;4.60;4.20;;;22.90;1.00;;;;;;5070721;28;20430;-62
2022/06/11 07:11:19;;;;;;;4.37;4.03;;;22.90;1.00;;;;;;5050518;28;20445;-61
2022/06/11 07:13:45;;;;;;;4.03;3.70;;;23.20;1.00;;;;;;5048868;28;20195;-61
2022/06/11 07:16:34;;;;;;;4.27;3.97;;;23.40;1.00;;;;;;5050848;28;20446;-60
2022/06/11 07:19:03;;;;;;;4.07;3.73;;;23.50;1.00;;;;;;5050630;28;20656;-61
2022/06/11 07:21:34;;;;;;;4.80;4.40;;;23.50;1.00;;;;;;5055076;28;20596;-61
2022/06/11 07:24:12;;;;;;;4.43;4.03;;;23.60;1.00;;;;;;5049728;28;20501;-61
2022/06/11 07:26:42;;;;;;;4.80;4.40;;;23.50;1.00;;;;;;5048468;28;20473;-61
2022/06/11 07:29:13;;;;;;;4.07;3.77;;;23.50;1.00;;;;;;5049754;28;20446;-60
2022/06/11 07:31:40;;;;;;;4.33;4.03;;;23.60;1.00;;;;;;5050296;28;20935;-63
2022/06/11 07:34:06;;;;;;;4.20;3.83;;;23.80;1.00;;;;;;5055880;28;20448;-62
2022/06/11 07:36:33;;;;;;;4.03;3.70;;;24.10;1.00;;;;;;5063259;28;20613;-61
2022/06/11 07:38:59;;;;;;;3.90;3.60;;;24.40;1.00;;;;;;5049674;28;20465;-61
2022/06/11 07:41:24;;;;;;;4.03;3.73;;;24.60;1.00;;;;;;5049581;28;20493;-61
2022/06/11 07:43:50;;;;;;;6.33;4.40;;;24.70;1.00;;;;;;5052159;28;20261;-60
2022/06/11 07:46:16;;;;;;;4.70;4.37;;;24.70;1.00;;;;;;5058112;28;20936;-61
2022/06/11 07:48:42;;;;;;;3.73;3.43;;;24.70;1.00;;;;;;5050175;28;20185;-61
2022/06/11 07:51:07;;;;;;;5.77;3.87;;;24.90;1.00;;;;;;5045037;28;20607;-61
2022/06/11 07:53:33;;;;;;;4.47;4.07;;;24.90;1.00;;;;;;5046187;28;20211;-60
2022/06/11 07:55:59;;;;;;;3.83;3.53;;;25.30;1.00;;;;;;5049997;28;20184;-60
2022/06/11 07:58:30;;;;;;;6.23;3.40;;;25.60;1.00;;;;;;5048175;28;20258;-60
2022/06/11 08:00:57;;;;;;;5.33;3.47;;;25.70;1.00;;;;;;5048264;28;20199;-60
2022/06/11 08:03:23;;;;;;;8.40;3.60;;;25.90;1.00;;;;;;5049653;28;21360;-60
2022/06/11 08:05:51;;;;;;;3.97;3.67;;;26.00;1.00;;;;;;5045852;28;20442;-61
2022/06/11 08:08:19;;;;;;;3.50;3.20;;;26.20;1.00;;;;;;5047432;28;20778;-60
2022/06/11 08:10:44;;;;;;;8.47;3.80;;;26.20;1.00;;;;;;5049236;28;20446;-61
2022/06/11 08:13:11;;;;;;;3.20;2.90;;;26.50;1.00;;;;;;5044098;28;20960;-62
2022/06/11 08:15:39;;;;;;;3.30;2.20;;;26.60;1.00;;;;;;5046260;28;20285;-62
2022/06/11 08:18:06;;;;;;;2.77;2.10;;;26.80;1.00;;;;;;5043303;28;20764;-61
2022/06/11 08:20:33;;;;;;;3.23;2.13;;;27.00;1.00;;;;;;5045924;28;20451;-61
2022/06/11 08:23:01;;;;;;;2.93;2.40;;;27.10;1.00;;;;;;5046007;28;20450;-61
2022/06/11 08:25:27;;;;;;;3.57;2.50;;;27.00;1.00;;;;;;5050188;28;20769;-61
2022/06/11 08:27:53;;;;;;;3.73;2.93;;;26.70;1.00;;;;;;5052481;28;20424;-62
2022/06/11 08:30:21;;;;;;;4.37;2.47;;;26.70;1.00;;;;;;5053840;28;20199;-60
2022/06/11 08:32:47;;;;;;;5.43;3.10;;;;;;;;;;5065973;28;20191;-61
2022/06/11 08:35:13;;;;;;;2.50;2.30;;;27.00;1.00;;;;;;5053361;28;20442;-61
2022/06/11 08:37:39;;;;;;;2.50;2.30;;;27.40;1.00;;;;;;5049994;28;20520;-61
2022/06/11 08:40:11;;;;;;;2.30;2.10;;;27.40;1.00;;;;;;5051618;28;20450;-61
2022/06/11 08:42:41;;;;;;;2.50;1.77;;;27.40;1.00;;;;;;5051522;28;20191;-61
2022/06/11 08:45:14;;;;;;;6.33;2.57;;;28.00;1.00;;;;;;5045291;28;20425;-62
2022/06/11 08:47:45;;;;;;;4.27;3.50;;;28.10;1.00;;;;;;5050935;28;20799;-60
2022/06/11 08:50:15;;;;;;;4.27;1.60;;;28.10;1.00;;;;;;5051659;28;20432;-60
2022/06/11 08:52:41;;;;;;;2.37;1.90;;;28.00;1.00;;;;;;5048865;28;20869;-61
2022/06/11 08:55:08;;;;;;;2.70;1.67;;;28.30;1.00;;;;;;5052342;28;22107;-61
2022/06/11 08:58:05;;;;;;;2.97;1.80;;;28.90;1.00;;;;;;5052729;28;20425;-61
2022/06/11 09:00:45;;;;;;;3.50;2.10;;;29.20;1.00;;;;;;5048681;28;20508;-60
2022/06/11 09:03:26;;;;;;;2.27;1.80;;;29.60;1.00;;;;;;5049950;28;20990;-61
2022/06/11 09:06:16;;;;;;;3.10;2.57;;;29.60;1.00;;;;;;5052036;28;20417;-62
2022/06/11 09:09:00;;;;;;;2.53;2.20;;;29.60;1.00;;;;;;5048337;28;20941;-62
2022/06/11 09:12:16;;;;;;;2.30;1.90;;;29.50;1.00;;;;;;5045816;28;20446;-62
2022/06/11 09:15:11;;;;;;;2.80;1.50;;;29.50;1.00;;;;;;5043377;28;20972;-60
2022/06/11 09:17:40;;;;;;;3.93;1.93;;;28.80;1.00;;;;;;5050229;28;20442;-61
2022/06/11 09:20:23;;;;;;;2.53;1.90;;;28.70;1.00;;;;;;5048155;28;20495;-61
2022/06/11 09:23:17;;;;;;;1.90;1.60;;;28.30;1.00;;;;;;5047852;28;20469;-61
2022/06/11 09:26:00;;;;;;;2.70;1.73;;;28.30;1.00;;;;;;5048659;28;20466;-62
2022/06/11 09:28:26;;;;;;;2.67;1.50;;;28.30;1.00;;;;;;5052583;28;20957;-62
2022/06/11 09:31:31;;;;;;;3.30;1.70;;;28.40;1.00;;;;;;5051408;28;20513;-62
2022/06/11 09:34:12;;;;;;;3.37;2.23;;;28.20;1.00;;;;;;5044605;28;20193;-61
2022/06/11 09:36:55;;;;;;;2.87;2.10;;;28.20;1.00;;;;;;5051653;28;20421;-61
2022/06/11 09:39:33;;;;;;;3.13;1.63;;;28.60;1.00;;;;;;5048670;28;21159;-60
2022/06/11 09:42:33;;;;;;;2.80;1.57;;;28.30;1.00;;;;;;5049290;28;20516;-61
2022/06/11 09:45:21;;;;;;;2.77;1.80;;;28.20;1.00;;;;;;5045004;28;21003;-65
2022/06/11 09:48:38;;;;;;;2.80;2.07;;;27.80;1.00;;;;;;5049617;28;20453;-60
2022/06/11 09:51:47;;;;;;;2.87;1.80;;;27.20;1.00;;;;;;5027765;28;20462;-61
2022/06/11 09:54:45;;;;;;;3.10;2.00;;;27.30;1.00;;;;;;5059207;28;20412;-61
2022/06/11 09:57:26;;;;;;;2.57;2.10;;;27.60;1.00;;;;;;5053071;28;20780;-61
2022/06/11 10:00:00;;;;;;;4.67;2.20;;;28.00;1.00;;;;;;5062289;28;20454;-62
2022/06/11 10:02:53;;;;;;;2.27;2.00;;;27.90;1.00;;;;;;5049270;28;20437;-62
2022/06/11 10:05:27;;;;;;;1.93;1.60;;;28.10;1.00;;;;;;5047887;28;20466;-61
2022/06/11 10:07:59;;;;;;;3.10;2.00;;;28.20;1.00;;;;;;5044455;28;20525;-61
2022/06/11 10:10:31;;;;;;;2.20;1.87;;;28.20;1.00;;;;;;5049486;28;20478;-62
2022/06/11 10:13:07;;;;;;;3.77;1.97;;;28.20;1.00;;;;;;5051259;28;20467;-61
2022/06/11 10:15:36;;;;;;;2.77;1.67;;;28.20;1.00;;;;;;5045393;28;20588;-62
2022/06/11 10:18:06;;;;;;;2.60;1.60;;;;;;;;;;5045149;28;20438;-62
2022/06/11 10:20:36;;;;;;;1.83;1.73;;;28.70;1.00;;;;;;5045146;28;20410;-60
2022/06/11 10:23:20;;;;;;;2.33;1.83;;;28.80;1.00;;;;;;5061587;28;20462;-62
2022/06/11 10:26:18;;;;;;;4.30;2.10;;;28.50;1.00;;;;;;5046170;28;20810;-62
2022/06/11 10:28:53;;;;;;;2.37;2.17;;;28.70;1.00;;;;;;5039101;28;20443;-62
2022/06/11 10:31:23;;;;;;;1.70;1.60;;;29.20;1.00;;;;;;5049178;28;20764;-61
2022/06/11 10:34:11;;;;;;;5.17;2.00;;;29.40;1.00;;;;;;5047667;28;20816;-62
2022/06/11 10:36:48;;;;;;;2.30;1.87;;;29.30;1.00;;;;;;5048173;28;20451;-62
2022/06/11 10:39:45;;;;;;;3.50;2.13;;;29.70;1.00;;;;;;5047961;28;20457;-61
2022/06/11 10:42:26;;;;;;;3.13;2.07;;;29.00;1.00;;;;;;5045426;28;20943;-62
2022/06/11 10:44:54;;;;;;;1.93;1.83;;;28.60;1.00;;;;;;5051072;28;20517;-61
2022/06/11 10:47:38;;;;;;;3.00;2.17;;;28.20;1.00;;;;;;5049383;28;20457;-61
2022/06/11 10:50:20;;;;;;;3.20;1.83;;;25.90;1.00;;;;;;5046144;28;20476;-62
2022/06/11 10:53:06;;;;;;;1.97;1.63;;;28.00;1.00;;;;;;5046734;28;20436;-61
2022/06/11 10:55:53;;;;;;;1.93;1.80;;;28.10;1.00;;;;;;5047853;28;20446;-61
2022/06/11 10:58:38;;;;;;;2.40;1.70;;;28.50;1.00;;;;;;5048818;28;20434;-62
2022/06/11 11:01:40;;;;;;;2.00;1.80;;;28.60;1.00;;;;;;5047547;28;20487;-62
2022/06/11 11:04:05;;;;;;;2.00;1.90;;;28.50;1.00;;;;;;5046942;28;20469;-61
2022/06/11 11:06:34;;;;;;;2.17;1.97;;;28.50;1.00;;;;;;5044430;28;20563;-62
2022/06/11 11:09:10;;;;;;;2.00;1.73;;;28.40;1.00;;;;;;5045083;28;20188;-62
2022/06/11 11:11:49;;;;;;;2.23;1.83;;;28.40;1.00;;;;;;5049637;28;20493;-62
2022/06/11 11:14:28;;;;;;;2.80;2.13;;;28.50;1.00;;;;;;5050281;28;20439;-62
2022/06/11 11:17:00;;;;;;;2.37;1.90;;;28.40;1.00;;;;;;5048406;28;20545;-62
2022/06/11 11:19:30;;;;;;;2.80;1.87;;;28.40;1.00;;;;;;5047724;28;20433;-63
2022/06/11 11:22:05;;;;;;;1.83;1.60;;;28.90;1.00;;;;;;5048448;28;20454;-62
2022/06/11 11:24:36;;;;;;;3.40;1.53;;;28.90;1.00;;;;;;5044964;28;20552;-61
2022/06/11 11:27:14;;;;;;;2.10;1.60;;;29.10;1.00;;;;;;5046534;28;20872;-61
2022/06/11 11:29:50;;;;;;;3.60;1.90;;;29.40;1.00;;;;;;5043973;28;20471;-61
2022/06/11 11:32:38;;;;;;;2.03;1.60;;;30.00;1.00;;;;;;5052467;28;20787;-62
2022/06/11 11:35:23;;;;;;;2.23;1.70;;;30.70;1.00;;;;;;5046411;28;20527;-62
2022/06/11 11:38:00;;;;;;;1.77;1.40;;;31.00;1.00;;;;;;5046041;28;20458;-60
2022/06/11 11:40:35;;;;;;;1.70;1.60;;;30.50;1.00;;;;;;5047682;28;20456;-61
2022/06/11 11:43:19;;;;;;;2.83;2.10;;;30.30;1.00;;;;;;5050242;28;20843;-62
2022/06/11 11:45:56;;;;;;;1.93;1.70;;;30.30;1.00;;;;;;5048473;28;20522;-61
2022/06/11 11:48:30;;;;;;;4.00;1.90;;;30.20;1.00;;;;;;5047829;28;20420;-62
2022/06/11 11:51:24;;;;;;;2.30;1.70;;;30.20;1.00;;;;;;5047120;28;20989;-61
2022/06/11 11:53:54;;;;;;;2.20;1.77;;;30.00;1.00;;;;;;5047755;28;20799;-62
2022/06/11 11:56:30;;;;;;;3.17;2.10;;;30.00;1.00;;;;;;5047648;28;20409;-62
2022/06/11 11:59:01;;;;;;;1.97;1.77;;;29.70;1.00;;;;;;5048679;28;20469;-61
2022/06/11 12:01:29;;;;;;;2.00;1.77;;;29.90;1.00;;;;;;5047483;28;20804;-62
2022/06/11 12:04:01;;;;;;;2.27;1.70;;;30.10;1.00;;;;;;5050328;28;20467;-62
2022/06/11 12:06:31;;;;;;;1.83;1.50;;;30.30;1.00;;;;;;5049887;28;20442;-62
2022/06/11 12:08:58;;;;;;;2.20;1.60;;;30.50;1.00;;;;;;5047237;28;20438;-62
2022/06/11 12:11:24;;;;;;;2.90;1.90;;;30.10;1.00;;;;;;5045719;28;20438;-61
2022/06/11 12:13:53;;;;;;;2.40;2.00;;;30.00;1.00;;;;;;5049479;28;21034;-61
2022/06/11 12:16:31;;;;;;;1.40;1.30;;;30.20;1.00;;;;;;5044014;28;20180;-62
2022/06/11 12:19:21;;;;;;;2.70;1.70;;;30.20;1.00;;;;;;5048707;28;20461;-61
2022/06/11 12:21:52;;;;;;;2.67;1.57;;;29.90;1.00;;;;;;5041693;28;21021;-62
2022/06/11 12:24:24;;;;;;;2.20;1.70;;;29.60;1.00;;;;;;5044518;28;20466;-61
2022/06/11 12:26:55;;;;;;;1.63;1.53;;;29.50;1.00;;;;;;5047285;28;20507;-62
2022/06/11 12:29:36;;;;;;;1.77;1.60;;;29.50;1.00;;;;;;5045704;28;20538;-62
2022/06/11 12:32:21;;;;;;;3.87;1.60;;;29.50;1.00;;;;;;5049129;28;20431;-61
2022/06/11 12:34:48;;;;;;;3.13;1.77;;;29.50;1.00;;;;;;5044074;28;20486;-61
2022/06/11 12:37:55;;;;;;;2.30;1.77;;;29.00;1.00;;;;;;5044456;28;20424;-62
2022/06/11 12:40:30;;;;;;;2.43;1.57;;;29.00;1.00;;;;;;5046665;28;20445;-62
2022/06/11 12:43:33;;;;;;;3.83;1.90;;;29.00;1.00;;;;;;5040404;28;20446;-61
2022/06/11 12:46:40;;;;;;;2.67;1.70;;;28.70;1.00;;;;;;5044833;28;20438;-61
2022/06/11 12:49:11;;;;;;;2.57;1.40;;;28.80;1.00;;;;;;5049925;28;20480;-62
2022/06/11 12:52:11;;;;;;;2.57;1.53;;;28.40;1.00;;;;;;5040982;28;20481;-61
2022/06/11 12:55:05;;;;;;;3.37;1.90;;;28.50;1.00;;;;;;5047904;28;20442;-61
2022/06/11 12:57:42;;;;;;;2.27;1.77;;;28.60;1.00;;;;;;5048013;28;20434;-62
2022/06/11 13:00:27;;;;;;;2.43;2.00;;;28.80;1.00;;;;;;5044514;28;20421;-60
2022/06/11 13:03:23;;;;;;;4.43;2.17;;;28.80;1.00;;;;;;5045070;28;20449;-59
2022/06/11 13:06:18;;;;;;;2.33;2.13;;;28.90;1.00;;;;;;5051724;28;20449;-61
2022/06/11 13:08:50;;;;;;;2.37;1.90;;;29.20;1.00;;;;;;5047538;28;20463;-61
2022/06/11 13:11:32;;;;;;;5.53;2.00;;;29.40;1.00;;;;;;5050243;28;20425;-60
2022/06/11 13:14:22;;;;;;;2.03;1.90;;;29.50;1.00;;;;;;5047741;28;20857;-59
2022/06/11 13:17:03;;;;;;;2.10;1.70;;;29.40;1.00;;;;;;5050179;28;20442;-61
2022/06/11 13:20:14;;;;;;;2.20;1.83;;;29.00;1.00;;;;;;5050722;28;20427;-62
2022/06/11 13:22:50;;;;;;;4.47;1.93;;;28.50;1.00;;;;;;5033344;28;20450;-61
2022/06/11 13:25:52;;;;;;;4.87;1.87;;;28.60;1.00;;;;;;5050909;28;20529;-59
2022/06/11 13:28:47;;;;;;;3.50;2.10;;;28.90;1.00;;;;;;5045407;28;20794;-61
2022/06/11 13:31:34;;;;;;;2.80;1.90;;;28.70;1.00;;;;;;5051857;28;20452;-61
2022/06/11 13:34:09;;;;;;;1.87;1.73;;;28.70;1.00;;;;;;5048215;28;20474;-61